Time;durP1;ratioP1;P1;durP2;ratioP2;P2;SDS_P1;SDS_P2;PMS_P1;PMS_P2;Temp;Humidity;BMP_temperature;BMP_pressure;BME280_temperature;BME280_humidity;BME280_pressure;Samples;Min_cycle;Max_cycle;Signal;HPM_P1;HPM_P2
2023/12/24 00:01:49;;;;;;;3.70;1.20;;;;;;;18.89;44.59;100776.97;5064904;28;20036;-73
2023/12/24 00:04:14;;;;;;;3.40;1.33;;;;;;;18.92;44.60;100792.53;5064646;28;20783;-74
2023/12/24 00:06:39;;;;;;;3.47;1.20;;;;;;;18.85;44.60;100779.03;5065903;28;20025;-75
2023/12/24 00:09:05;;;;;;;4.00;1.50;;;;;;;18.80;44.59;100773.28;5065450;28;20340;-73
2023/12/24 00:11:31;;;;;;;4.47;1.40;;;;;;;18.91;44.50;100788.22;5066010;28;20424;-75
2023/12/24 00:13:56;;;;;;;5.43;1.35;;;;;;;18.90;44.49;100809.47;5066588;28;20021;-74
2023/12/24 00:16:21;;;;;;;4.32;1.20;;;;;;;18.89;44.46;100795.44;5066820;28;20078;-73
2023/12/24 00:18:47;;;;;;;2.53;1.00;;;;;;;18.89;44.51;100806.00;5065356;28;20111;-74
2023/12/24 00:21:13;;;;;;;4.03;1.10;;;;;;;18.78;44.53;100784.94;5065539;28;20571;-74
2023/12/24 00:23:38;;;;;;;4.22;1.30;;;;;;;18.79;44.39;100790.09;5065517;28;20064;-74
2023/12/24 00:26:03;;;;;;;4.75;1.63;;;;;;;18.76;44.40;100790.34;5065874;28;20440;-73
2023/12/24 00:28:29;;;;;;;3.20;1.20;;;;;;;18.76;44.47;100800.06;5064975;28;20032;-73
2023/12/24 00:30:54;;;;;;;3.67;1.05;;;;;;;18.82;44.37;100807.47;5064466;28;20033;-74
2023/12/24 00:33:20;;;;;;;3.75;1.30;;;;;;;18.79;44.40;100782.16;5065030;28;20038;-74
2023/12/24 00:35:46;;;;;;;4.35;1.40;;;;;;;18.82;44.19;100789.81;5064433;28;20108;-74
2023/12/24 00:38:12;;;;;;;4.45;1.40;;;;;;;18.81;44.08;100787.31;5065302;28;20059;-74
2023/12/24 00:40:37;;;;;;;2.87;1.30;;;;;;;18.77;43.96;100767.41;5065545;28;20067;-74
2023/12/24 00:43:02;;;;;;;3.90;1.30;;;;;;;18.72;44.09;100751.97;5066513;28;20269;-74
2023/12/24 00:45:29;;;;;;;3.30;1.25;;;;;;;18.67;44.25;100743.59;5065760;28;20032;-74
2023/12/24 00:47:55;;;;;;;3.55;1.00;;;;;;;18.66;44.08;100741.94;5065857;28;20091;-74
2023/12/24 00:50:20;;;;;;;3.72;1.25;;;;;;;18.76;43.89;100745.47;5066436;28;20040;-73
2023/12/24 00:52:46;;;;;;;3.55;1.20;;;;;;;18.74;44.13;100721.00;5066173;28;20068;-73
2023/12/24 00:55:12;;;;;;;4.43;1.50;;;;;;;18.64;44.07;100705.13;5066332;28;20020;-73
2023/12/24 00:57:37;;;;;;;3.42;1.10;;;;;;;18.73;43.87;100708.75;5065681;28;20039;-73
2023/12/24 01:00:04;;;;;;;2.55;1.08;;;;;;;18.62;43.85;100687.72;5064743;28;20821;-73
2023/12/24 01:02:29;;;;;;;3.92;1.10;;;;;;;18.70;43.79;100693.19;5063730;28;20137;-73
2023/12/24 01:04:54;;;;;;;3.60;1.02;;;;;;;18.72;43.96;100693.06;5064591;28;20116;-73
2023/12/24 01:07:20;;;;;;;2.47;0.80;;;;;;;18.66;43.94;100671.50;5064841;28;20033;-73
2023/12/24 01:09:45;;;;;;;2.08;0.82;;;;;;;18.54;43.93;100629.50;5064489;28;20028;-74
2023/12/24 01:12:10;;;;;;;3.53;1.10;;;;;;;18.56;43.84;100631.03;5065031;28;20048;-73
2023/12/24 01:14:36;;;;;;;3.20;1.10;;;;;;;18.63;43.99;100631.34;5064526;28;20335;-73
2023/12/24 01:17:01;;;;;;;2.67;0.88;;;;;;;18.66;43.78;100639.00;5065761;28;20036;-73
2023/12/24 01:19:27;;;;;;;3.92;1.23;;;;;;;18.49;43.65;100630.72;5066067;28;20444;-73
2023/12/24 01:21:54;;;;;;;3.55;0.90;;;;;;;18.58;43.75;100642.31;5065640;28;20036;-73
2023/12/24 01:24:20;;;;;;;3.20;1.08;;;;;;;18.61;43.93;100642.03;5065543;28;20119;-74
2023/12/24 01:26:45;;;;;;;2.97;1.10;;;;;;;18.60;43.94;100644.81;5065822;28;20129;-73
2023/12/24 01:29:10;;;;;;;2.45;0.93;;;;;;;18.54;43.70;100632.97;5065456;28;20822;-74
2023/12/24 01:31:37;;;;;;;1.92;0.90;;;;;;;18.59;43.74;100637.84;5065096;28;20095;-73
2023/12/24 01:34:03;;;;;;;3.42;1.10;;;;;;;18.61;43.86;100662.28;5065486;28;20086;-73
2023/12/24 01:36:28;;;;;;;3.10;0.90;;;;;;;18.60;43.92;100647.44;5064788;28;20032;-73
2023/12/24 01:38:53;;;;;;;2.22;0.90;;;;;;;18.55;43.96;100641.72;5062535;28;20032;-74
2023/12/24 01:41:19;;;;;;;2.75;1.10;;;;;;;18.57;43.69;100653.81;5065231;28;20106;-73
2023/12/24 01:43:45;;;;;;;4.70;1.25;;;;;;;18.60;43.83;100668.56;5068832;28;20408;-73
2023/12/24 01:46:13;;;;;;;3.10;1.20;;;;;;;18.56;43.96;100657.41;5069492;28;20068;-74
2023/12/24 01:48:39;;;;;;;2.97;1.20;;;;;;;18.58;44.07;100659.91;5068338;28;20052;-74
2023/12/24 01:51:05;;;;;;;3.15;1.15;;;;;;;18.51;43.72;100656.97;5068343;28;20036;-73
2023/12/24 01:53:31;;;;;;;3.13;1.13;;;;;;;18.56;43.91;100678.53;5069499;28;20021;-72
2023/12/24 01:55:57;;;;;;;3.47;0.98;;;;;;;18.49;43.95;100661.56;5069597;28;20028;-74
2023/12/24 01:58:24;;;;;;;3.92;1.02;;;;;;;18.57;43.97;100671.47;5068512;28;20772;-73
2023/12/24 02:00:49;;;;;;;3.13;1.20;;;;;;;18.55;43.96;100670.75;5068057;28;20111;-73
2023/12/24 02:03:16;;;;;;;2.90;1.00;;;;;;;18.53;43.95;100662.94;5066859;28;20580;-73
2023/12/24 02:05:43;;;;;;;3.33;1.10;;;;;;;18.54;44.29;100658.53;5067774;28;20496;-73
2023/12/24 02:08:14;;;;;;;4.95;1.00;;;;;;;18.45;44.10;100652.22;5066072;28;20040;-73
2023/12/24 02:10:39;;;;;;;4.60;1.15;;;;;;;18.54;43.95;100661.16;5066880;28;20526;-74
2023/12/24 02:13:05;;;;;;;3.72;0.93;;;;;;;18.53;44.34;100668.22;5067101;28;20070;-74
2023/12/24 02:15:30;;;;;;;2.95;1.00;;;;;;;18.42;44.30;100644.56;5068088;28;20024;-74
2023/12/24 02:17:56;;;;;;;3.70;0.90;;;;;;;18.51;44.32;100664.91;5067731;28;20029;-73
2023/12/24 02:20:25;;;;;;;2.55;0.90;;;;;;;18.52;44.63;100671.00;5067782;28;20032;-74
2023/12/24 02:22:52;;;;;;;3.30;0.90;;;;;;;18.43;44.59;100649.72;5067002;28;20115;-74
2023/12/24 02:25:17;;;;;;;4.88;1.00;;;;;;;18.41;44.61;100627.09;5067635;28;20036;-74
2023/12/24 02:27:51;;;;;;;2.28;1.15;;;;;;;18.49;44.53;100651.84;5067311;28;20102;-73
2023/12/24 02:30:26;;;;;;;2.92;1.38;;;;;;;18.42;44.87;100640.16;5067278;28;20495;-74
2023/12/24 02:32:55;;;;;;;4.15;1.10;;;;;;;18.48;44.68;100647.53;5067684;28;20428;-74
2023/12/24 02:35:21;;;;;;;3.40;1.00;;;;;;;18.48;44.83;100636.13;5067551;28;20114;-75
2023/12/24 02:37:47;;;;;;;3.78;1.08;;;;;;;18.48;45.07;100636.13;5067901;28;20044;-75
2023/12/24 02:40:13;;;;;;;3.90;1.10;;;;;;;18.48;44.92;100625.56;5067638;28;20555;-74
2023/12/24 02:42:38;;;;;;;2.13;0.80;;;;;;;18.45;44.97;100617.91;5067832;28;20036;-74
2023/12/24 02:45:04;;;;;;;2.75;1.00;;;;;;;18.42;44.99;100618.19;5068142;28;20040;-74
2023/12/24 02:47:29;;;;;;;2.03;0.70;;;;;;;18.38;45.05;100604.44;5068375;28;20061;-74
2023/12/24 02:49:55;;;;;;;3.05;1.00;;;;;;;18.44;45.19;100616.28;5068117;28;20047;-74
2023/12/24 02:52:20;;;;;;;2.63;0.82;;;;;;;18.39;45.09;100603.47;5067422;28;20115;-73
2023/12/24 02:54:45;;;;;;;2.80;0.85;;;;;;;18.36;45.12;100598.44;5068147;28;20461;-74
2023/12/24 02:57:11;;;;;;;3.20;1.02;;;;;;;18.42;45.13;100603.22;5068431;28;20104;-74
2023/12/24 02:59:36;;;;;;;2.70;1.13;;;;;;;18.36;45.31;100579.13;5067372;28;20039;-73
2023/12/24 03:02:01;;;;;;;3.03;1.00;;;;;;;18.39;45.31;100597.34;5067134;28;20043;-74
2023/12/24 03:04:26;;;;;;;2.42;0.90;;;;;;;18.40;45.30;100596.38;5067177;28;20060;-74
2023/12/24 03:06:52;;;;;;;2.00;0.75;;;;;;;18.42;45.56;100597.94;5067490;28;20040;-73
2023/12/24 03:09:17;;;;;;;2.08;0.80;;;;;;;18.41;45.46;100598.88;5066864;28;20417;-74
2023/12/24 03:11:43;;;;;;;3.72;0.98;;;;;;;18.41;45.60;100598.88;5067360;28;20036;-74
2023/12/24 03:14:08;;;;;;;3.92;1.00;;;;;;;18.27;45.33;100572.84;5067976;28;20040;-73
2023/12/24 03:16:34;;;;;;;2.53;0.80;;;;;;;18.40;45.45;100591.94;5068032;28;20086;-74
2023/12/24 03:18:59;;;;;;;2.75;1.00;;;;;;;18.29;45.50;100570.91;5067916;28;20362;-74
2023/12/24 03:21:24;;;;;;;1.80;0.70;;;;;;;18.33;45.79;100572.34;5068096;28;20025;-73
2023/12/24 03:23:49;;;;;;;2.43;0.80;;;;;;;18.39;45.85;100569.16;5067604;28;20515;-73
2023/12/24 03:26:22;;;;;;;2.13;0.70;;;;;;;18.38;45.54;100566.66;5068101;28;20269;-73
2023/12/24 03:28:51;;;;;;;2.42;0.80;;;;;;;18.34;45.81;100559.97;5067358;28;20052;-73
2023/12/24 03:31:17;;;;;;;3.70;0.90;;;;;;;18.37;45.89;100557.91;5066166;28;20036;-74
2023/12/24 03:33:42;;;;;;;3.25;1.05;;;;;;;18.28;46.04;100543.72;5066415;28;20028;-74
2023/12/24 03:36:09;;;;;;;2.75;0.60;;;;;;;18.21;45.87;100533.81;5066729;28;20044;-74
2023/12/24 03:38:35;;;;;;;1.75;0.65;;;;;;;18.36;45.97;100558.88;5066552;28;20369;-74
2023/12/24 03:41:00;;;;;;;2.33;0.80;;;;;;;18.26;45.86;100528.97;5066292;28;20139;-74
2023/12/24 03:43:25;;;;;;;1.83;0.70;;;;;;;18.35;45.66;100543.19;5067059;28;20447;-74
2023/12/24 03:45:51;;;;;;;1.97;0.60;;;;;;;18.33;46.13;100537.22;5067197;28;20261;-74
2023/12/24 03:48:16;;;;;;;0.95;0.50;;;;;;;18.31;45.90;100546.09;5067387;28;20282;-73
2023/12/24 03:50:41;;;;;;;2.55;0.80;;;;;;;18.28;46.02;100525.25;5067394;28;20044;-74
2023/12/24 03:53:07;;;;;;;0.80;0.50;;;;;;;18.28;46.01;100533.16;5067486;28;20037;-74
2023/12/24 03:55:32;;;;;;;1.42;0.70;;;;;;;18.22;45.97;100511.75;5067128;28;20094;-73
2023/12/24 03:57:58;;;;;;;1.58;0.50;;;;;;;18.23;45.97;100508.13;5067427;28;20028;-73
2023/12/24 04:00:23;;;;;;;1.63;0.60;;;;;;;18.23;46.23;100514.25;5066435;28;20381;-75
2023/12/24 04:02:48;;;;;;;1.38;0.60;;;;;;;18.20;46.35;100517.16;5065147;28;20539;-74
2023/12/24 04:05:14;;;;;;;1.55;0.60;;;;;;;18.22;46.40;100525.78;5065560;28;20070;-75
2023/12/24 04:07:39;;;;;;;0.95;0.50;;;;;;;18.25;46.27;100529.97;5065706;28;20028;-75
2023/12/24 04:10:05;;;;;;;2.95;0.73;;;;;;;18.24;46.41;100515.09;5065397;28;20035;-74
2023/12/24 04:12:30;;;;;;;1.40;0.50;;;;;;;18.24;46.16;100528.28;5065691;28;20032;-73
2023/12/24 04:14:56;;;;;;;2.35;0.50;;;;;;;18.21;46.34;100518.00;5065874;28;20449;-73
2023/12/24 04:17:21;;;;;;;1.95;0.50;;;;;;;18.21;46.10;100515.34;5065396;28;20625;-74
2023/12/24 04:19:46;;;;;;;1.58;0.50;;;;;;;18.30;46.39;100525.94;5065643;28;20032;-74
2023/12/24 04:22:12;;;;;;;1.33;0.50;;;;;;;18.23;46.50;100508.13;5065876;28;20425;-74
2023/12/24 04:24:37;;;;;;;1.67;0.60;;;;;;;18.30;46.53;100517.19;5066262;28;20028;-74
2023/12/24 04:27:02;;;;;;;1.92;0.55;;;;;;;18.24;46.29;100510.63;5065221;28;20036;-74
2023/12/24 04:29:28;;;;;;;1.52;0.52;;;;;;;18.25;46.34;100508.84;5066603;28;20107;-73
2023/12/24 04:31:53;;;;;;;3.38;0.60;;;;;;;18.25;46.49;100507.03;5066428;28;20473;-75
2023/12/24 04:34:18;;;;;;;1.05;0.40;;;;;;;18.25;46.56;100512.31;5066299;28;20029;-72
2023/12/24 04:36:43;;;;;;;1.38;0.50;;;;;;;18.22;46.66;100509.13;5065958;28;20453;-72
2023/12/24 04:39:09;;;;;;;1.80;0.47;;;;;;;18.18;46.77;100500.63;5066580;28;20040;-72
2023/12/24 04:41:34;;;;;;;1.00;0.37;;;;;;;18.24;46.91;100513.28;5066649;28;20123;-73
2023/12/24 04:43:59;;;;;;;0.70;0.40;;;;;;;18.27;46.71;100507.72;5066352;28;20269;-72
2023/12/24 04:46:24;;;;;;;0.90;0.50;;;;;;;18.27;46.82;100506.91;5065946;28;20020;-73
2023/12/24 04:48:50;;;;;;;1.05;0.32;;;;;;;18.27;46.65;100504.28;5066175;28;20791;-73
2023/12/24 04:51:15;;;;;;;0.57;0.30;;;;;;;18.19;46.64;100491.75;5065992;28;20095;-72
2023/12/24 04:53:41;;;;;;;0.50;0.30;;;;;;;18.23;46.45;100509.00;5066228;28;20035;-72
2023/12/24 04:56:06;;;;;;;0.68;0.40;;;;;;;18.24;46.78;100499.25;5066245;28;20067;-73
2023/12/24 04:58:31;;;;;;;0.90;0.50;;;;;;;18.24;46.84;100505.38;5066847;28;20036;-72
2023/12/24 05:00:57;;;;;;;0.30;0.30;;;;;;;18.26;46.91;100502.59;5065085;28;20269;-73
2023/12/24 05:03:23;;;;;;;0.77;0.30;;;;;;;18.25;46.80;100500.94;5063773;28;20520;-73
2023/12/24 05:05:48;;;;;;;1.55;0.50;;;;;;;18.16;46.99;100483.28;5065138;28;20115;-74
2023/12/24 05:08:13;;;;;;;0.82;0.40;;;;;;;18.13;46.94;100482.59;5065470;28;20040;-73
2023/12/24 05:10:39;;;;;;;1.40;0.40;;;;;;;18.23;46.86;100493.16;5047410;28;20040;-73
2023/12/24 05:13:04;;;;;;;0.60;0.40;;;;;;;18.14;47.04;100486.03;5063573;28;20040;-74
2023/12/24 05:15:29;;;;;;;2.25;0.50;;;;;;;18.23;47.12;100505.50;5066156;28;20033;-73
2023/12/24 05:17:55;;;;;;;1.37;0.40;;;;;;;18.13;46.86;100489.66;5070335;28;20035;-74
2023/12/24 05:20:20;;;;;;;2.28;0.40;;;;;;;18.23;46.82;100505.50;5069468;28;20787;-74
2023/12/24 05:22:45;;;;;;;1.40;0.30;;;;;;;18.13;47.29;100481.72;5070169;28;20064;-75
2023/12/24 05:25:11;;;;;;;0.70;0.30;;;;;;;18.18;47.15;100494.53;5069416;28;20265;-74
2023/12/24 05:27:38;;;;;;;1.05;0.40;;;;;;;18.20;47.23;100503.97;5066791;28;20029;-75
2023/12/24 05:30:05;;;;;;;0.30;0.30;;;;;;;18.19;47.17;100499.66;5067708;28;20488;-74
2023/12/24 05:32:30;;;;;;;0.65;0.35;;;;;;;18.12;47.09;100483.53;5068370;28;20647;-73
2023/12/24 05:34:55;;;;;;;1.27;0.40;;;;;;;18.18;47.32;100497.16;5068957;28;20123;-74
2023/12/24 05:37:20;;;;;;;0.40;0.30;;;;;;;18.19;47.33;100498.84;5068513;28;20119;-73
2023/12/24 05:39:46;;;;;;;0.55;0.30;;;;;;;18.19;47.26;100496.19;5069042;28;20075;-74
2023/12/24 05:42:11;;;;;;;0.30;0.30;;;;;;;18.11;47.30;100473.13;5068899;28;20040;-74
2023/12/24 05:44:37;;;;;;;0.47;0.30;;;;;;;18.09;47.35;100475.91;5068102;28;20074;-75
2023/12/24 05:47:02;;;;;;;0.52;0.38;;;;;;;18.09;47.27;100473.25;5066956;28;20084;-74
2023/12/24 05:49:28;;;;;;;0.85;0.35;;;;;;;18.18;47.26;100490.06;5067352;28;20079;-74
2023/12/24 05:51:53;;;;;;;0.63;0.30;;;;;;;18.19;47.15;100490.94;5067943;28;20040;-75
2023/12/24 05:54:19;;;;;;;0.25;0.25;;;;;;;18.16;47.59;100486.75;5068901;28;20234;-74
2023/12/24 05:56:45;;;;;;;0.68;0.32;;;;;;;18.18;47.51;100486.59;5068705;28;20144;-75
2023/12/24 05:59:10;;;;;;;0.88;0.30;;;;;;;18.18;47.38;100489.25;5068617;28;20174;-74
2023/12/24 06:01:36;;;;;;;0.40;0.20;;;;;;;18.18;47.45;100490.06;5067428;28;20033;-75
2023/12/24 06:04:02;;;;;;;0.30;0.30;;;;;;;18.11;47.49;100459.94;5066194;28;20082;-74
2023/12/24 06:06:27;;;;;;;0.20;0.20;;;;;;;18.18;47.46;100476.06;5067264;28;20029;-73
2023/12/24 06:08:52;;;;;;;0.40;0.30;;;;;;;18.10;47.48;100477.56;5067641;28;20043;-74
2023/12/24 06:11:18;;;;;;;0.57;0.30;;;;;;;18.18;47.50;100491.88;5067704;28;20382;-74
2023/12/24 06:13:44;;;;;;;0.90;0.30;;;;;;;18.13;47.32;100482.59;5067823;28;20044;-74
2023/12/24 06:16:11;;;;;;;0.43;0.28;;;;;;;18.18;47.07;100490.06;5068845;28;20029;-73
2023/12/24 06:18:37;;;;;;;0.20;0.20;;;;;;;18.11;47.07;100470.50;5069092;28;20028;-75
2023/12/24 06:21:04;;;;;;;0.52;0.30;;;;;;;18.15;46.91;100476.31;5068231;28;20051;-73
2023/12/24 06:23:29;;;;;;;0.63;0.30;;;;;;;18.20;46.87;100474.97;5068232;28;20070;-73
2023/12/24 06:25:54;;;;;;;0.20;0.20;;;;;;;18.15;47.15;100461.34;5068634;28;20040;-75
2023/12/24 06:28:20;;;;;;;0.60;0.30;;;;;;;18.17;46.90;100453.31;5067540;28;20039;-74
2023/12/24 06:30:45;;;;;;;0.23;0.20;;;;;;;18.27;47.20;100462.06;5068537;28;20051;-73
2023/12/24 06:33:10;;;;;;;0.20;0.20;;;;;;;18.28;46.90;100459.28;5067756;28;20315;-75
2023/12/24 06:35:35;;;;;;;0.20;0.20;;;;;;;18.26;47.25;100447.19;5068557;28;20469;-74
2023/12/24 06:38:01;;;;;;;0.52;0.30;;;;;;;18.29;47.22;100446.94;5066224;28;20066;-74
2023/12/24 06:40:26;;;;;;;0.38;0.20;;;;;;;18.38;47.28;100456.69;5068580;28;20098;-73
2023/12/24 06:42:51;;;;;;;0.22;0.22;;;;;;;18.40;47.29;100454.72;5068042;28;20041;-75
2023/12/24 06:45:17;;;;;;;0.10;0.10;;;;;;;18.37;47.33;100449.72;5068155;28;20024;-73
2023/12/24 06:47:42;;;;;;;0.30;0.30;;;;;;;18.35;47.15;100435.03;5067154;28;20638;-73
2023/12/24 06:50:07;;;;;;;0.20;0.20;;;;;;;18.37;47.31;100440.97;5067398;28;20195;-74
2023/12/24 06:52:33;;;;;;;0.20;0.20;;;;;;;18.44;47.37;100450.03;5067380;28;20044;-74
2023/12/24 06:54:58;;;;;;;0.20;0.20;;;;;;;18.47;47.26;100457.69;5067623;28;20029;-74
2023/12/24 06:57:23;;;;;;;0.28;0.22;;;;;;;18.51;47.17;100460.88;5067178;28;20039;-73
2023/12/24 06:59:49;;;;;;;0.25;0.22;;;;;;;18.51;47.18;100442.41;5067239;28;20037;-73
2023/12/24 07:02:15;;;;;;;0.30;0.25;;;;;;;18.45;47.34;100428.78;5066744;28;20025;-74
2023/12/24 07:04:40;;;;;;;0.60;0.22;;;;;;;18.43;47.22;100427.25;5067810;28;20036;-73
2023/12/24 07:07:05;;;;;;;1.23;0.20;;;;;;;18.52;47.33;100437.00;5067772;28;20107;-74
2023/12/24 07:09:30;;;;;;;0.20;0.20;;;;;;;18.47;47.33;100429.47;5067745;28;20043;-73
2023/12/24 07:11:56;;;;;;;0.43;0.20;;;;;;;18.46;47.16;100419.88;5068152;28;20028;-75
2023/12/24 07:14:21;;;;;;;0.30;0.30;;;;;;;18.53;47.11;100441.28;5068057;28;20064;-73
2023/12/24 07:16:46;;;;;;;0.63;0.30;;;;;;;18.47;47.25;100426.84;5065771;28;20261;-73
2023/12/24 07:19:11;;;;;;;0.22;0.20;;;;;;;18.57;47.33;100449.78;5067382;28;20361;-74
2023/12/24 07:21:37;;;;;;;0.35;0.25;;;;;;;18.58;47.22;100452.28;5066691;28;20040;-73
2023/12/24 07:24:03;;;;;;;0.20;0.20;;;;;;;18.58;47.24;100451.44;5066987;28;20094;-73
2023/12/24 07:26:28;;;;;;;0.28;0.20;;;;;;;18.48;47.25;100430.31;5066308;28;20261;-74
2023/12/24 07:28:53;;;;;;;0.73;0.40;;;;;;;18.58;47.26;100449.63;5066555;28;20024;-72
2023/12/24 07:31:19;;;;;;;0.20;0.20;;;;;;;18.49;47.28;100426.72;5067250;28;20285;-73
2023/12/24 07:33:44;;;;;;;0.40;0.20;;;;;;;18.55;47.23;100446.41;5066712;28;20657;-74
2023/12/24 07:36:09;;;;;;;0.30;0.25;;;;;;;18.53;47.45;100446.56;5066963;28;20120;-74
2023/12/24 07:38:35;;;;;;;0.45;0.20;;;;;;;18.58;47.35;100452.28;5066900;28;20119;-74
2023/12/24 07:41:00;;;;;;;0.43;0.20;;;;;;;18.49;47.24;100445.19;5066280;28;20063;-74
2023/12/24 07:43:27;;;;;;;0.20;0.20;;;;;;;18.49;47.33;100445.19;5066783;28;20473;-70
2023/12/24 07:45:52;;;;;;;0.20;0.20;;;;;;;18.58;47.84;100456.69;5066899;28;20032;-72
2023/12/24 07:48:18;;;;;;;0.45;0.30;;;;;;;18.56;47.91;100451.56;5066730;28;20056;-72
2023/12/24 07:50:43;;;;;;;0.45;0.28;;;;;;;18.59;47.51;100453.09;5066683;28;20042;-73
2023/12/24 07:53:09;;;;;;;0.55;0.40;;;;;;;18.56;47.85;100456.84;5065817;28;20024;-72
2023/12/24 07:55:34;;;;;;;0.20;0.20;;;;;;;18.50;47.79;100444.22;5066991;28;20472;-72
2023/12/24 07:57:59;;;;;;;0.57;0.30;;;;;;;18.51;47.65;100442.41;5067254;28;20289;-72
2023/12/24 08:00:24;;;;;;;0.73;0.30;;;;;;;18.57;47.98;100452.41;5066237;28;20071;-72
2023/12/24 08:02:51;;;;;;;0.30;0.30;;;;;;;18.58;47.80;100454.91;5064329;28;20293;-72
2023/12/24 08:05:16;;;;;;;0.20;0.20;;;;;;;18.48;47.98;100430.31;5065719;28;20273;-69
2023/12/24 08:07:42;;;;;;;0.32;0.32;;;;;;;18.54;48.08;100444.78;5065939;28;20024;-73
2023/12/24 08:10:07;;;;;;;1.65;0.20;;;;;;;18.56;48.19;100442.81;5065199;28;20032;-72
2023/12/24 08:12:33;;;;;;;0.20;0.20;;;;;;;18.55;48.04;100442.00;5065826;28;20487;-72
2023/12/24 08:14:58;;;;;;;0.32;0.20;;;;;;;18.47;48.14;100432.13;5065946;28;20030;-73
2023/12/24 08:17:23;;;;;;;0.32;0.22;;;;;;;18.59;48.38;100461.03;5066163;28;20440;-73
2023/12/24 08:19:48;;;;;;;0.20;0.20;;;;;;;18.60;48.16;100457.41;5065963;28;20059;-73
2023/12/24 08:22:14;;;;;;;0.33;0.20;;;;;;;18.60;48.10;100462.69;5066141;28;20443;-72
2023/12/24 08:24:39;;;;;;;0.68;0.35;;;;;;;18.48;48.17;100433.81;5066841;28;20356;-71
2023/12/24 08:27:05;;;;;;;1.05;0.30;;;;;;;18.59;48.44;100447.81;5066297;28;20430;-71
2023/12/24 08:29:31;;;;;;;0.50;0.30;;;;;;;18.54;48.47;100442.97;5065868;28;20024;-72
2023/12/24 08:31:56;;;;;;;0.85;0.32;;;;;;;18.59;48.24;100456.56;5065100;28;20036;-72
2023/12/24 08:34:23;;;;;;;0.45;0.30;;;;;;;18.52;48.50;100437.00;5064182;28;20036;-72
2023/12/24 08:36:48;;;;;;;0.95;0.40;;;;;;;18.56;48.79;100437.53;5066115;28;20130;-71
2023/12/24 08:39:13;;;;;;;2.60;0.40;;;;;;;18.54;48.88;100429.75;5064372;28;20037;-72
2023/12/24 08:41:39;;;;;;;0.30;0.20;;;;;;;18.62;48.95;100448.38;5061536;28;20036;-71
2023/12/24 08:44:04;;;;;;;1.63;0.38;;;;;;;18.55;49.16;100438.50;5062881;28;20036;-71
2023/12/24 08:46:30;;;;;;;0.65;0.30;;;;;;;18.56;49.07;100427.81;5063841;28;20028;-70
2023/12/24 08:48:55;;;;;;;1.50;0.40;;;;;;;18.58;48.98;100439.09;5064755;28;20037;-72
2023/12/24 08:51:21;;;;;;;0.60;0.25;;;;;;;18.62;49.20;100448.38;5065549;28;20037;-70
2023/12/24 08:53:46;;;;;;;0.25;0.20;;;;;;;18.55;49.49;100431.44;5065920;28;20059;-70
2023/12/24 08:56:13;;;;;;;0.65;0.30;;;;;;;18.62;49.39;100434.34;5063953;28;20032;-70
2023/12/24 08:58:38;;;;;;;1.85;0.30;;;;;;;18.62;49.32;100432.53;5063001;28;20376;-71
2023/12/24 09:01:04;;;;;;;0.57;0.35;;;;;;;18.62;49.33;100432.53;5064781;28;20028;-71
2023/12/24 09:03:29;;;;;;;2.03;0.40;;;;;;;18.57;49.49;100423.38;5061616;28;20036;-72
2023/12/24 09:05:54;;;;;;;0.70;0.40;;;;;;;18.55;49.49;100427.94;5064795;28;20480;-71
2023/12/24 09:08:20;;;;;;;0.60;0.30;;;;;;;18.64;49.24;100454.38;5064841;28;20094;-71
2023/12/24 09:10:45;;;;;;;0.65;0.25;;;;;;;18.57;49.45;100445.31;5063373;28;20096;-71
2023/12/24 09:13:10;;;;;;;2.58;0.40;;;;;;;18.61;49.94;100456.44;5066808;28;20522;-72
2023/12/24 09:15:36;;;;;;;1.67;0.43;;;;;;;18.64;49.85;100464.06;5061162;28;20024;-75
2023/12/24 09:18:01;;;;;;;0.77;0.40;;;;;;;18.70;49.85;100466.16;5062970;28;20050;-74
2023/12/24 09:20:27;;;;;;;0.30;0.20;;;;;;;18.62;49.95;100453.66;5064416;28;20074;-71
2023/12/24 09:22:52;;;;;;;2.05;0.45;;;;;;;18.74;49.85;100472.84;5064497;28;20148;-72
2023/12/24 09:25:17;;;;;;;2.05;0.40;;;;;;;18.71;49.77;100454.66;5064357;28;20587;-71
2023/12/24 09:27:45;;;;;;;1.15;0.30;;;;;;;18.71;49.57;100446.72;5063658;28;20462;-72
2023/12/24 09:30:12;;;;;;;2.33;0.40;;;;;;;18.72;49.76;100445.75;5065231;28;20094;-72
2023/12/24 09:32:37;;;;;;;1.10;0.40;;;;;;;18.71;49.56;100457.28;5046935;28;20033;-73
2023/12/24 09:35:04;;;;;;;0.98;0.32;;;;;;;18.77;49.56;100455.88;5066096;28;20091;-71
2023/12/24 09:37:31;;;;;;;1.58;0.30;;;;;;;18.66;49.56;100428.66;5064492;28;20032;-69
2023/12/24 09:39:56;;;;;;;0.70;0.30;;;;;;;18.65;49.44;100434.09;5065806;28;20036;-69
2023/12/24 09:42:22;;;;;;;1.27;0.50;;;;;;;18.76;49.52;100451.59;5066595;28;20032;-70
2023/12/24 09:44:47;;;;;;;0.95;0.40;;;;;;;18.73;49.60;100436.03;5064889;28;20037;-70
2023/12/24 09:47:13;;;;;;;0.65;0.40;;;;;;;18.75;49.38;100442.00;5064284;28;20137;-69
2023/12/24 09:49:38;;;;;;;1.08;0.50;;;;;;;18.76;49.57;100446.31;5063907;28;20059;-69
2023/12/24 09:52:04;;;;;;;1.57;0.57;;;;;;;18.72;49.66;100434.34;5061644;28;20036;-69
2023/12/24 09:54:30;;;;;;;1.60;0.70;;;;;;;18.64;49.59;100429.75;5064216;28;20278;-70
2023/12/24 09:56:56;;;;;;;1.35;0.60;;;;;;;18.67;49.35;100438.25;5045825;28;20043;-69
2023/12/24 09:59:21;;;;;;;1.90;0.70;;;;;;;18.73;49.74;100442.16;5064566;28;20033;-69
2023/12/24 10:01:46;;;;;;;2.15;0.70;;;;;;;18.70;49.69;100438.94;5064234;28;20490;-70
2023/12/24 10:04:13;;;;;;;2.65;0.90;;;;;;;18.68;49.49;100439.91;5046143;28;20037;-71
2023/12/24 10:06:56;;;;;;;1.67;0.77;;;;;;;18.74;49.85;100450.88;5067286;28;20036;-70
2023/12/24 10:09:23;;;;;;;1.77;0.63;;;;;;;18.72;50.26;100452.84;5067413;28;20036;-70
2023/12/24 10:12:05;;;;;;;1.60;0.55;;;;;;;18.74;50.45;100443.81;5068582;28;20036;-71
2023/12/24 10:14:31;;;;;;;1.25;0.60;;;;;;;18.73;50.45;100439.50;5068104;28;20516;-70
2023/12/24 10:16:58;;;;;;;3.50;0.70;;;;;;;18.77;50.63;100437.41;5068115;28;20039;-69
2023/12/24 10:19:24;;;;;;;1.85;0.85;;;;;;;18.72;50.66;100431.72;5067950;28;20521;-70
2023/12/24 10:22:06;;;;;;;2.85;0.75;;;;;;;18.80;50.69;100442.41;5067608;28;20424;-69
2023/12/24 10:24:39;;;;;;;2.65;0.70;;;;;;;18.80;50.50;100438.00;5067761;28;20115;-70
2023/12/24 10:27:06;;;;;;;0.95;0.50;;;;;;;18.80;50.63;100451.19;5067357;28;20037;-69
2023/12/24 10:29:33;;;;;;;4.40;0.88;;;;;;;18.75;50.70;100442.00;5067918;28;20025;-70
2023/12/24 10:31:58;;;;;;;1.70;0.80;;;;;;;18.74;50.59;100430.63;5067024;28;20032;-69
2023/12/24 10:34:24;;;;;;;0.98;0.50;;;;;;;18.83;50.80;100443.00;5067876;28;20086;-69
2023/12/24 10:36:49;;;;;;;2.03;0.85;;;;;;;18.83;50.52;100439.50;5067885;28;20111;-69
2023/12/24 10:39:18;;;;;;;2.28;0.68;;;;;;;18.75;50.51;100420.88;5067210;28;20059;-68
2023/12/24 10:41:44;;;;;;;1.88;0.80;;;;;;;18.76;50.89;100404.91;5067761;28;20032;-70
2023/12/24 10:44:09;;;;;;;2.00;0.70;;;;;;;18.83;50.87;100415.75;5067937;28;20033;-69
2023/12/24 10:46:34;;;;;;;1.33;0.60;;;;;;;18.77;51.08;100409.22;5066959;28;20059;-71
2023/12/24 10:49:00;;;;;;;1.45;0.70;;;;;;;18.82;51.00;100409.63;5066960;28;20076;-70
2023/12/24 10:51:26;;;;;;;2.17;0.70;;;;;;;18.83;50.74;100394.63;5066596;28;20039;-67
2023/12/24 10:53:51;;;;;;;1.45;0.70;;;;;;;18.84;50.90;100398.97;5066436;28;20036;-71
2023/12/24 10:56:26;;;;;;;1.65;0.68;;;;;;;18.87;50.44;100405.75;5067889;28;20110;-70
2023/12/24 10:59:10;;;;;;;1.38;0.60;;;;;;;18.84;50.46;100388.41;5067294;28;20038;-68
2023/12/24 11:01:36;;;;;;;0.98;0.50;;;;;;;18.81;50.63;100381.56;5067706;28;20038;-69
2023/12/24 11:04:01;;;;;;;2.20;0.70;;;;;;;18.80;50.51;100382.56;5066629;28;20086;-68
2023/12/24 11:06:35;;;;;;;3.22;0.70;;;;;;;18.84;50.33;100402.44;5068040;28;20036;-68
2023/12/24 11:09:01;;;;;;;1.23;0.50;;;;;;;18.74;50.31;100388.38;5068175;28;20039;-70
2023/12/24 11:11:53;;;;;;;1.95;0.70;;;;;;;18.82;50.57;100399.06;5068221;28;20491;-68
2023/12/24 11:14:41;;;;;;;1.92;0.80;;;;;;;18.80;50.48;100382.56;5067259;28;20071;-69
2023/12/24 11:17:39;;;;;;;5.22;0.77;;;;;;;18.82;50.82;100382.41;5062361;28;20040;-66
2023/12/24 11:20:26;;;;;;;1.90;0.70;;;;;;;18.81;51.22;100392.13;5066151;28;20056;-66